.
WxDataArchive / Data Records for 2011-08-25
2011-08-24 August 2011 2011-08-26

Data Records for Thursday, 25 August 2011

Time	Temp	Chill	HIndex	Humid	Dewpt	 Wind 	HiWind	WindDir	Rain 	Barom 
-----	----	-----	------	-----	-----	------	------	-------	-----	----- 
00:00	71.3	71.3	71.3	89	67.9	0	1	292	0.00	29.678 
00:05	71.1	71.1	71.1	88	67.4	0	1	292	0.00	29.678 
00:10	71.1	71.1	71.1	89	67.7	0	0	---	0.00	29.678 
00:15	70.9	70.9	70.9	89	67.5	0	0	---	0.00	29.689 
00:20	70.9	70.9	70.9	89	67.5	0	0	---	0.00	29.689 
00:25	70.8	70.8	70.8	90	67.7	0	0	---	0.00	29.689 
00:30	70.6	70.6	70.6	90	67.5	0	0	---	0.00	29.699 
00:35	70.6	70.6	70.6	90	67.5	0	0	---	0.00	29.699 
00:40	70.8	70.8	70.8	91	68.0	0	1	292	0.00	29.699 
00:45	70.8	70.8	70.8	91	68.0	0	0	---	0.00	29.706 
00:50	70.9	70.9	70.9	91	68.1	0	0	---	0.00	29.706 
00:55	70.9	70.9	70.9	91	68.1	0	0	---	0.00	29.706 
01:00	71.1	71.1	71.1	91	68.3	0	0	---	0.00	29.718 
01:05	71.1	71.1	71.1	91	68.3	0	0	---	0.00	29.718 
01:10	71.3	71.3	71.3	91	68.5	0	0	---	0.00	29.718 
01:15	71.5	71.5	71.5	91	68.7	0	0	---	0.00	29.724 
01:20	71.5	71.5	71.5	90	68.4	0	1	292	0.00	29.724 
01:25	71.5	71.5	71.5	88	67.7	0	2	292	0.00	29.724 
01:30	71.3	71.3	71.3	86	66.9	0	1	292	0.00	29.727 
01:35	71.5	71.5	71.5	85	66.7	0	1	292	0.00	29.727 
01:40	71.5	71.5	71.5	84	66.4	0	0	---	0.00	29.727 
01:45	71.3	71.3	71.3	83	65.9	0	0	---	0.00	29.735 
01:50	71.3	71.3	71.3	83	65.9	0	0	---	0.00	29.735 
01:55	71.1	71.1	71.1	84	66.0	0	0	---	0.00	29.735 
02:00	70.9	70.9	70.9	84	65.8	0	0	---	0.00	29.736 
02:05	70.6	70.6	70.6	84	65.5	0	1	292	0.00	29.736 
02:10	70.6	70.6	70.6	84	65.5	0	0	---	0.00	29.736 
02:15	70.4	70.4	70.4	83	65.0	0	0	---	0.00	29.735 
02:20	70.3	70.3	70.3	83	64.9	0	0	---	0.00	29.735 
02:25	70.3	70.3	70.3	83	64.9	0	0	---	0.00	29.735 
02:30	70.1	70.1	70.1	83	64.7	0	1	292	0.00	29.741 
02:35	70.3	70.3	70.3	81	64.2	0	1	292	0.00	29.741 
02:40	70.3	70.3	70.3	80	63.8	0	0	---	0.00	29.741 
02:45	70.1	70.1	70.1	79	63.3	0	1	292	0.00	29.739 
02:50	70.1	70.1	70.1	79	63.3	0	0	---	0.00	29.739 
02:55	69.9	69.9	69.9	79	63.1	0	1	292	0.00	29.739 
03:00	69.9	69.9	69.9	78	62.7	0	1	292	0.00	29.739 
03:05	69.8	69.8	69.8	78	62.6	0	1	292	0.00	29.739 
03:10	69.6	69.6	69.6	78	62.4	0	1	292	0.00	29.739 
03:15	69.4	69.4	69.4	79	62.6	0	1	292	0.00	29.736 
03:20	69.3	69.3	69.3	79	62.5	0	1	292	0.00	29.736 
03:25	69.1	69.1	69.1	79	62.3	0	1	292	0.00	29.736 
03:30	68.9	68.9	68.9	79	62.1	0	1	292	0.00	29.744 
03:35	68.8	68.8	68.8	79	62.0	0	1	292	0.00	29.744 
03:40	68.6	68.6	68.6	79	61.8	0	1	292	0.00	29.744 
03:45	68.6	68.6	68.6	79	61.8	0	1	292	0.00	29.745 
03:50	68.4	68.4	68.4	79	61.6	0	0	---	0.00	29.745 
03:55	68.3	68.3	68.3	79	61.5	0	0	---	0.00	29.745 
04:00	68.1	68.1	68.1	79	61.3	0	1	292	0.00	29.749 
04:05	68.1	68.1	68.1	79	61.3	0	3	292	0.00	29.749 
04:10	67.9	67.9	67.9	79	61.1	0	2	292	0.00	29.749 
04:15	67.8	67.8	67.8	79	61.0	0	3	292	0.00	29.750 
04:20	67.6	67.6	67.6	80	61.2	0	1	292	0.00	29.750 
04:25	67.4	67.4	67.4	80	61.0	0	1	292	0.00	29.750 
04:30	67.3	67.3	67.3	81	61.3	0	2	292	0.00	29.761 
04:35	67.1	67.1	67.1	81	61.1	0	1	292	0.00	29.761 
04:40	67.1	67.1	67.1	81	61.1	0	1	292	0.00	29.761 
04:45	66.9	66.9	66.9	81	60.9	0	2	292	0.00	29.767 
04:50	66.8	66.8	66.8	81	60.8	0	3	292	0.00	29.767 
04:55	66.6	66.6	66.6	81	60.6	0	1	292	0.00	29.767 
05:00	66.6	66.6	66.6	81	60.6	0	2	292	0.00	29.769 
05:05	66.6	66.6	66.6	81	60.6	0	1	292	0.00	29.769 
05:10	66.4	66.4	66.4	81	60.4	0	1	292	0.00	29.769 
05:15	66.4	66.4	66.4	81	60.4	0	1	292	0.00	29.778 
05:20	66.3	66.3	66.3	81	60.3	0	2	292	0.00	29.778 
05:25	66.3	66.3	66.3	82	60.6	0	2	292	0.00	29.778 
05:30	66.1	66.1	66.1	81	60.1	0	1	292	0.00	29.783 
05:35	66.1	66.1	66.1	81	60.1	0	1	292	0.00	29.783 
05:40	66.1	66.1	66.1	81	60.1	0	1	292	0.00	29.783 
05:45	66.1	66.1	66.1	81	60.1	0	1	292	0.00	29.787 
05:50	66.0	66.0	66.0	81	60.0	0	1	292	0.00	29.787 
05:55	66.0	66.0	66.0	81	60.0	0	1	292	0.00	29.787 
06:00	65.8	65.8	65.8	81	59.8	0	1	292	0.00	29.787 
06:05	65.8	65.8	65.8	81	59.8	0	1	292	0.00	29.787 
06:10	65.6	65.6	65.6	81	59.6	0	1	292	0.00	29.787 
06:15	65.6	65.6	65.6	81	59.6	0	1	292	0.00	29.800 
06:20	65.6	65.6	65.6	81	59.6	0	1	292	0.00	29.800 
06:25	65.6	65.6	65.6	81	59.6	0	1	292	0.00	29.800 
06:30	65.5	65.5	65.5	81	59.5	0	1	292	0.00	29.801 
06:35	65.5	65.5	65.5	81	59.5	0	1	292	0.00	29.801 
06:40	65.3	65.3	65.3	81	59.3	0	1	292	0.00	29.801 
06:45	65.3	65.3	65.3	81	59.3	0	1	292	0.00	29.806 
06:50	65.3	65.3	65.3	81	59.3	0	1	292	0.00	29.806 
06:55	65.3	65.3	65.3	81	59.3	0	1	292	0.00	29.806 
07:00	65.2	65.2	65.2	81	59.2	0	1	292	0.00	29.815 
07:05	65.2	65.2	65.2	81	59.2	0	1	292	0.00	29.815 
07:10	65.0	65.0	65.0	81	59.0	0	1	292	0.00	29.815 
07:15	65.0	65.0	65.0	81	59.0	0	1	292	0.00	29.822 
07:20	65.0	65.0	65.0	81	59.0	0	1	292	0.00	29.822 
07:25	65.0	65.0	65.0	81	59.0	0	1	292	0.00	29.822 
07:30	65.0	65.0	65.0	81	59.0	0	1	292	0.00	29.832 
07:35	65.2	65.2	65.2	81	59.2	0	1	292	0.00	29.832 
07:40	65.2	65.2	65.2	81	59.2	0	1	292	0.00	29.832 
07:45	65.3	65.3	65.3	81	59.3	0	1	292	0.00	29.835 
07:50	65.5	65.5	65.5	81	59.5	0	1	292	0.00	29.835 
07:55	65.6	65.6	65.6	81	59.6	0	2	292	0.00	29.835 
08:00	66.0	66.0	66.0	80	59.6	0	1	292	0.00	29.838 
08:05	66.3	66.3	66.3	79	59.6	1	3	292	0.00	29.838 
08:10	66.8	66.8	66.8	78	59.7	1	3	292	0.00	29.838 
08:15	67.1	67.1	67.1	77	59.6	1	2	292	0.00	29.841 
08:20	67.4	67.4	67.4	77	59.9	1	3	292	0.00	29.841 
08:25	67.8	67.8	67.8	76	59.9	2	4	292	0.00	29.841 
08:30	68.1	68.1	68.1	75	59.9	2	5	292	0.00	29.847 
08:35	68.3	68.3	68.3	75	60.1	1	4	292	0.00	29.847 
08:40	68.4	68.4	68.4	75	60.2	2	3	292	0.00	29.847 
08:45	68.6	68.6	68.6	75	60.3	2	4	292	0.00	29.845 
08:50	68.9	68.9	68.9	74	60.3	3	6	292	0.00	29.845 
08:55	69.3	69.3	69.3	73	60.3	3	6	270	0.00	29.845 
09:00	69.4	69.4	69.4	73	60.4	3	9	270	0.00	29.849 
09:05	69.8	69.8	69.8	73	60.7	2	4	292	0.00	29.849 
09:10	69.9	69.9	69.9	73	60.8	2	5	292	0.00	29.849 
09:15	70.1	70.1	70.1	72	60.6	3	6	270	0.00	29.853 
09:20	70.3	70.3	70.3	72	60.8	2	4	270	0.00	29.853 
09:25	70.6	70.6	70.6	72	61.1	3	5	270	0.00	29.853 
09:30	70.8	70.8	70.8	72	61.3	3	4	270	0.00	29.858 
09:35	70.9	70.9	70.9	72	61.4	2	7	270	0.00	29.858 
09:40	71.3	71.3	71.3	72	61.8	1	2	270	0.00	29.858 
09:45	71.6	71.6	71.6	72	62.1	2	6	292	0.00	29.862 
09:50	71.8	71.8	71.8	71	61.9	3	7	270	0.00	29.862 
09:55	72.0	72.0	72.0	72	62.5	2	4	270	0.00	29.862 
10:00	72.3	72.3	72.3	71	62.4	2	5	292	0.00	29.865 
10:05	72.5	72.5	72.5	70	62.1	3	6	270	0.00	29.865 
10:10	72.7	72.7	72.7	70	62.3	3	6	270	0.00	29.865 
10:15	72.8	72.8	72.8	69	62.0	2	5	270	0.00	29.881 
10:20	73.0	73.0	73.0	69	62.2	2	5	270	0.00	29.881 
10:25	73.2	73.2	73.2	69	62.4	2	6	270	0.00	29.881 
10:30	73.3	73.3	73.3	68	62.1	1	3	292	0.00	29.886 
10:35	73.7	73.7	73.7	68	62.5	2	7	315	0.00	29.886 
10:40	74.0	74.0	74.0	67	62.3	2	4	270	0.00	29.886 
10:45	74.4	74.4	74.4	65	61.8	2	4	270	0.00	29.892 
10:50	74.4	74.4	74.4	65	61.8	3	5	270	0.00	29.892 
10:55	74.4	74.4	74.4	64	61.4	3	4	315	0.00	29.892 
11:00	74.2	74.2	74.2	65	61.7	2	4	270	0.00	29.899 
11:05	74.7	74.7	74.7	66	62.6	1	3	292	0.00	29.899 
11:10	75.1	75.1	77.3	63	61.6	1	3	292	0.00	29.899 
11:15	75.3	75.3	77.4	64	62.3	2	5	315	0.00	29.903 
11:20	75.6	75.6	77.6	63	62.1	1	3	292	0.00	29.903 
11:25	75.6	75.6	77.7	61	61.2	2	4	315	0.00	29.903 
11:30	75.8	75.8	77.8	61	61.4	2	5	270	0.00	29.904 
11:35	76.0	76.0	78.0	61	61.6	1	3	315	0.00	29.904 
11:40	75.8	75.8	77.9	59	60.4	2	5	315	0.00	29.904 
11:45	76.1	76.1	78.1	60	61.2	1	4	315	0.00	29.911 
11:50	76.3	76.3	78.2	61	61.8	1	2	315	0.00	29.911 
11:55	76.5	76.5	78.4	60	61.6	2	5	315	0.00	29.911 
12:00	77.4	77.4	79.1	59	61.9	1	4	292	0.00	29.917 
12:05	77.4	77.4	79.1	57	61.0	2	5	338	0.00	29.917 
12:10	77.2	77.2	78.9	58	61.3	1	4	315	0.00	29.917 
12:15	77.2	77.2	78.9	58	61.3	2	5	315	0.00	29.917 
12:20	77.7	77.7	79.3	56	60.7	3	4	270	0.00	29.917 
12:25	77.0	77.0	78.7	57	60.6	2	4	270	0.00	29.917 
12:30	77.4	77.4	79.0	55	59.9	2	4	270	0.00	29.920 
12:35	77.4	77.4	79.0	55	59.9	3	6	270	0.00	29.920 
12:40	76.8	76.8	78.6	57	60.4	1	3	292	0.00	29.920 
12:45	76.7	76.7	78.5	57	60.3	2	5	248	0.00	29.921 
12:50	76.8	76.8	78.6	56	59.9	2	4	315	0.00	29.921 
12:55	77.0	77.0	78.7	57	60.6	2	5	315	0.00	29.921 
13:00	77.6	77.6	79.2	56	60.6	1	5	292	0.00	29.922 
13:05	77.4	77.4	79.1	57	61.0	2	5	292	0.00	29.922 
13:10	77.2	77.2	78.9	58	61.3	1	4	292	0.00	29.922 
13:15	77.6	77.6	79.2	57	61.1	2	5	292	0.00	29.923 
13:20	78.1	78.1	79.6	56	61.1	1	4	338	0.00	29.923 
13:25	78.1	78.1	79.5	54	60.1	2	4	338	0.00	29.923 
13:30	78.1	78.1	79.6	56	61.1	2	5	270	0.00	29.923 
13:35	78.3	78.3	79.8	56	61.3	2	4	270	0.00	29.923 
13:40	78.6	78.6	80.0	56	61.6	2	5	270	0.00	29.923 
13:45	78.8	78.8	80.0	53	60.2	2	6	270	0.00	29.921 
13:50	78.6	78.6	80.0	56	61.6	1	3	292	0.00	29.921 
13:55	78.5	78.5	79.9	56	61.5	2	4	292	0.00	29.921 
14:00	77.9	77.9	79.3	54	59.9	2	4	315	0.00	29.925 
14:05	77.7	77.7	79.3	56	60.7	1	4	292	0.00	29.925 
14:10	78.5	78.5	80.0	57	62.0	0	3	315	0.00	29.925 
14:15	78.8	78.8	80.1	54	60.7	2	5	315	0.00	29.924 
14:20	79.2	79.2	80.4	54	61.1	3	5	270	0.00	29.924 
14:25	79.8	79.8	80.9	53	61.1	3	5	270	0.00	29.924 
14:30	80.1	80.1	81.0	51	60.3	3	5	270	0.00	29.919 
14:35	80.1	80.1	81.4	55	62.4	2	5	270	0.00	29.919 
14:40	79.6	79.6	80.6	52	60.4	2	5	270	0.00	29.919 
14:45	79.4	79.4	80.6	54	61.3	0	2	270	0.00	29.920 
14:50	79.4	79.4	80.7	55	61.8	0	3	270	0.00	29.920 
14:55	79.8	79.8	81.1	55	62.2	1	3	270	0.00	29.920 
15:00	80.3	80.3	81.3	52	61.0	2	4	292	0.00	29.915 
15:05	80.1	80.1	81.1	52	60.9	2	6	315	0.00	29.915 
15:10	80.5	80.5	81.4	51	60.7	1	2	315	0.00	29.915 
15:15	81.1	81.1	82.1	52	61.8	2	4	315	0.00	29.917 
15:20	81.2	81.2	82.5	54	62.9	1	3	292	0.00	29.917 
15:25	81.4	81.4	82.4	52	62.1	2	4	270	0.00	29.917 
15:30	81.4	81.4	82.4	52	62.1	2	4	315	0.00	29.918 
15:35	80.9	80.9	82.0	53	62.1	1	4	292	0.00	29.918 
15:40	80.3	80.3	81.2	51	60.5	1	4	292	0.00	29.918 
15:45	79.6	79.6	80.7	53	60.9	1	4	292	0.00	29.921 
15:50	79.6	79.6	80.9	55	62.0	1	4	270	0.00	29.921 
15:55	79.8	79.8	80.8	52	60.6	1	2	270	0.00	29.921 
16:00	80.1	80.1	80.9	50	59.8	2	4	270	0.00	29.921 
16:05	80.1	80.1	81.1	52	60.9	1	3	270	0.00	29.921 
16:10	79.8	79.8	81.0	54	61.7	0	3	270	0.00	29.921 
16:15	79.6	79.6	80.7	53	60.9	1	4	270	0.00	29.924 
16:20	79.6	79.6	80.5	51	59.9	2	4	292	0.00	29.924 
16:25	79.9	79.9	81.0	53	61.2	0	2	292	0.00	29.924 
16:30	80.7	80.7	81.4	50	60.3	1	3	292	0.00	29.917 
16:35	80.7	80.7	81.6	51	60.9	1	4	292	0.00	29.917 
16:40	79.9	79.9	80.8	51	60.1	0	2	292	0.00	29.917 
16:45	79.8	79.8	80.7	51	60.0	0	2	292	0.00	29.920 
16:50	79.9	79.9	81.0	53	61.2	2	5	292	0.00	29.920 
16:55	79.8	79.8	80.8	52	60.6	1	4	292	0.00	29.920 
17:00	79.8	79.8	80.9	53	61.1	0	2	315	0.00	29.920 
17:05	80.3	80.3	81.3	52	61.0	1	3	315	0.00	29.920 
17:10	80.5	80.5	81.4	51	60.7	1	4	315	0.00	29.920 
17:15	80.3	80.3	81.1	50	59.9	1	3	315	0.00	29.922 
17:20	80.5	80.5	81.4	51	60.7	2	6	270	0.00	29.922 
17:25	79.9	79.9	80.8	51	60.1	1	4	270	0.00	29.922 
17:30	79.2	79.2	80.2	51	59.5	2	3	270	0.00	29.930 
17:35	78.8	78.8	80.0	53	60.2	0	2	270	0.00	29.930 
17:40	78.6	78.6	79.8	52	59.5	1	3	270	0.00	29.930 
17:45	78.8	78.8	80.0	53	60.2	0	1	270	0.00	29.934 
17:50	78.8	78.8	80.0	53	60.2	0	1	270	0.00	29.934 
17:55	78.8	78.8	79.9	52	59.7	1	2	270	0.00	29.934 
18:00	78.8	78.8	80.0	53	60.2	0	1	270	0.00	29.933 
18:05	78.6	78.6	79.8	52	59.5	0	2	270	0.00	29.933 
18:10	78.5	78.5	79.8	54	60.4	0	1	270	0.00	29.933 
18:15	78.5	78.5	79.8	54	60.4	0	2	270	0.00	29.936 
18:20	78.5	78.5	79.8	54	60.4	0	1	270	0.00	29.936 
18:25	78.5	78.5	79.8	54	60.4	0	2	270	0.00	29.936 
18:30	78.5	78.5	79.8	53	59.9	0	2	270	0.00	29.936 
18:35	78.8	78.8	80.0	53	60.2	1	3	270	0.00	29.936 
18:40	78.8	78.8	80.0	53	60.2	1	3	270	0.00	29.936 
18:45	78.6	78.6	79.8	53	60.0	1	2	270	0.00	29.937 
18:50	78.3	78.3	79.7	54	60.3	0	1	270	0.00	29.937 
18:55	78.1	78.1	79.5	54	60.1	0	1	270	0.00	29.937 
19:00	77.9	77.9	79.4	55	60.4	0	1	270	0.00	29.939 
19:05	77.9	77.9	79.3	54	59.9	0	2	270	0.00	29.939 
19:10	77.7	77.7	79.2	55	60.2	0	1	270	0.00	29.939 
19:15	77.7	77.7	79.2	55	60.2	0	1	270	0.00	29.939 
19:20	77.7	77.7	79.2	55	60.2	0	2	270	0.00	29.939 
19:25	77.6	77.6	79.2	56	60.6	0	1	270	0.00	29.939 
19:30	77.4	77.4	79.0	56	60.5	0	1	270	0.00	29.941 
19:35	77.4	77.4	79.1	57	61.0	0	1	270	0.00	29.941 
19:40	77.6	77.6	79.2	56	60.6	0	1	270	0.00	29.941 
19:45	77.4	77.4	79.0	56	60.5	0	2	270	0.00	29.940 
19:50	77.4	77.4	79.1	57	61.0	0	0	---	0.00	29.940 
19:55	77.2	77.2	78.9	58	61.3	0	1	270	0.00	29.940 
20:00	76.8	76.8	78.6	58	60.9	0	0	---	0.00	29.939 
20:05	76.7	76.7	78.5	59	61.3	0	0	---	0.00	29.939 
20:10	76.3	76.3	78.2	59	60.9	0	1	270	0.00	29.939 
20:15	76.0	76.0	78.0	60	61.1	0	0	---	0.00	29.947 
20:20	75.8	75.8	77.9	60	60.9	0	0	---	0.00	29.947 
20:25	75.4	75.4	77.6	61	61.0	0	0	---	0.00	29.947 
20:30	75.1	75.1	77.3	62	61.2	0	0	---	0.00	29.950 
20:35	74.6	74.6	74.6	62	60.7	0	0	---	0.00	29.950 
20:40	74.2	74.2	74.2	63	60.8	0	0	---	0.00	29.950 
20:45	73.9	73.9	73.9	63	60.5	0	0	---	0.00	29.953 
20:50	73.7	73.7	73.7	64	60.7	0	0	---	0.00	29.953 
20:55	73.3	73.3	73.3	65	60.8	0	0	---	0.00	29.953 
21:00	73.2	73.2	73.2	65	60.7	0	0	---	0.00	29.957 
21:05	72.8	72.8	72.8	66	60.8	0	0	---	0.00	29.957 
21:10	72.7	72.7	72.7	66	60.7	0	0	---	0.00	29.957 
21:15	72.3	72.3	72.3	67	60.7	0	0	---	0.00	29.965 
21:20	72.0	72.0	72.0	68	60.8	0	0	---	0.00	29.965 
21:25	71.8	71.8	71.8	69	61.1	0	0	---	0.00	29.965 
21:30	71.5	71.5	71.5	69	60.8	0	0	---	0.00	29.969 
21:35	71.3	71.3	71.3	70	61.0	0	0	---	0.00	29.969 
21:40	71.1	71.1	71.1	71	61.2	0	0	---	0.00	29.969 
21:45	70.9	70.9	70.9	71	61.0	0	0	---	0.00	29.976 
21:50	70.8	70.8	70.8	71	60.9	0	0	---	0.00	29.976 
21:55	70.6	70.6	70.6	72	61.1	0	0	---	0.00	29.976 
22:00	70.4	70.4	70.4	72	60.9	0	0	---	0.00	29.983 
22:05	70.3	70.3	70.3	72	60.8	0	0	---	0.00	29.983 
22:10	70.3	70.3	70.3	73	61.2	0	0	---	0.00	29.983 
22:15	70.1	70.1	70.1	73	61.0	0	0	---	0.00	29.983 
22:20	69.9	69.9	69.9	74	61.2	0	0	---	0.00	29.983 
22:25	69.8	69.8	69.8	74	61.1	0	1	270	0.00	29.983 
22:30	69.8	69.8	69.8	74	61.1	0	1	270	0.00	29.983 
22:35	69.6	69.6	69.6	74	60.9	0	1	270	0.00	29.983 
22:40	69.4	69.4	69.4	74	60.7	0	1	270	0.00	29.983 
22:45	69.4	69.4	69.4	75	61.1	0	0	---	0.00	29.988 
22:50	69.1	69.1	69.1	75	60.8	0	0	---	0.00	29.988 
22:55	68.9	68.9	68.9	76	61.0	0	0	---	0.00	29.988 
23:00	68.6	68.6	68.6	77	61.1	0	0	---	0.00	29.987 
23:05	68.4	68.4	68.4	77	60.9	0	0	---	0.00	29.987 
23:10	68.3	68.3	68.3	78	61.2	0	1	270	0.00	29.987 
23:15	68.1	68.1	68.1	78	61.0	0	0	---	0.00	29.990 
23:20	67.8	67.8	67.8	78	60.7	0	0	---	0.00	29.990 
23:25	67.8	67.8	67.8	79	61.0	0	1	270	0.00	29.990 
23:30	67.6	67.6	67.6	79	60.8	0	1	270	0.00	29.992 
23:35	67.4	67.4	67.4	79	60.7	0	1	270	0.00	29.992 
23:40	67.3	67.3	67.3	79	60.6	0	1	270	0.00	29.992 
23:45	67.1	67.1	67.1	80	60.7	0	1	270	0.00	29.997 
23:50	67.1	67.1	67.1	80	60.7	0	0	---	0.00	29.997 
23:55	66.9	66.9	66.9	80	60.5	0	0	---	0.00	29.997 

CoCoRaHS
IN-AL-39
A2 Web Hosting
Creative Commons License
GoDaddy
search engine by freefind advanced

loaded 2018-11-14 04:53:18 • last modified 2010-11-18 10:43:29
Privacy PolicyDisclaimer
• wx.awcolley.com is powered by PmWiki v.2002016 •
• all content (unless otherwise noted) © 2018 A W Colley